Аэропорт: Абакан. Абакан

ICAO: UNAA

METAR:
2021-01-27 02:30:00
UNAA 270230Z 00000MPS 1400 1100N R02/1400U SN FU SCT022 M29/M33 Q1032 R02/490137 TEMPO 0700 +SN FU RMK QFE751
METAR:
2021-01-26 22:57:00
TAF UNAA 262257Z 2700/2724 06003MPS 3300 BR FU SCT016 TEMPO 2700/2703 0500 -SN FG FM270300 22003G10MPS 2300 -SN OVC013 TEMPO 2703/2707 23008G13MPS 1000 SN BLSN BECMG 2707/2709 3500 -SN BKN016 TEMPO 2709/2718 24008G15MPS